Time;durP1;ratioP1;P1;durP2;ratioP2;P2;SDS_P1;SDS_P2;PMS_P1;PMS_P2;Temp;Humidity;BMP_temperature;BMP_pressure;BME280_temperature;BME280_humidity;BME280_pressure;Samples;Min_cycle;Max_cycle;Signal;HPM_P1;HPM_P2
2023/05/18 00:01:45;;;;;;;4.55;0.82;;;6.30;99.90;;;;;;4929792;29;20034;-91
2023/05/18 00:04:10;;;;;;;4.68;1.35;;;6.30;99.90;;;;;;4943049;28;20435;-92
2023/05/18 00:06:36;;;;;;;6.75;2.05;;;6.20;99.90;;;;;;4921111;29;20024;-91
2023/05/18 00:09:02;;;;;;;8.15;1.48;;;6.20;99.90;;;;;;4933350;29;20023;-91
2023/05/18 00:11:28;;;;;;;5.05;1.10;;;6.20;99.90;;;;;;4926568;29;20051;-91
2023/05/18 00:13:54;;;;;;;7.38;1.10;;;6.10;99.90;;;;;;4932539;29;20464;-91
2023/05/18 00:16:20;;;;;;;12.45;1.88;;;6.10;99.90;;;;;;4936863;29;20031;-91
2023/05/18 00:18:46;;;;;;;6.07;1.00;;;6.10;99.90;;;;;;4936603;29;20086;-91
2023/05/18 00:21:12;;;;;;;5.25;1.02;;;6.10;99.90;;;;;;4924145;29;20027;-90
2023/05/18 00:23:38;;;;;;;5.05;0.82;;;6.00;99.90;;;;;;4937451;29;20042;-91
2023/05/18 00:26:04;;;;;;;7.10;1.27;;;5.90;99.90;;;;;;4938087;29;20034;-91
2023/05/18 00:28:29;;;;;;;11.63;1.38;;;5.90;99.90;;;;;;4937507;29;20027;-91
2023/05/18 00:30:55;;;;;;;7.25;1.13;;;5.80;99.90;;;;;;4928882;29;20130;-91
2023/05/18 00:33:21;;;;;;;7.55;0.80;;;5.80;99.90;;;;;;4933648;29;20089;-90
2023/05/18 00:35:47;;;;;;;6.57;1.15;;;5.70;99.90;;;;;;4930640;29;20031;-91
2023/05/18 00:38:14;;;;;;;6.90;1.30;;;5.60;99.90;;;;;;4937356;29;20023;-90
2023/05/18 00:40:40;;;;;;;6.43;1.40;;;5.60;99.90;;;;;;4944878;29;20177;-91
2023/05/18 00:43:06;;;;;;;9.02;1.50;;;5.60;99.90;;;;;;4930336;29;20034;-90
2023/05/18 00:45:31;;;;;;;4.88;1.23;;;5.50;99.90;;;;;;4937248;29;20028;-91
2023/05/18 00:47:57;;;;;;;9.95;1.33;;;5.50;99.90;;;;;;4931104;29;20383;-91
2023/05/18 00:50:22;;;;;;;7.00;1.30;;;5.40;99.90;;;;;;4930718;29;20039;-92
2023/05/18 00:52:50;;;;;;;7.32;1.08;;;5.40;99.90;;;;;;4922740;29;20031;-91
2023/05/18 00:55:15;;;;;;;4.72;1.20;;;5.40;99.90;;;;;;4918531;29;20081;-91
2023/05/18 00:57:43;;;;;;;8.82;1.38;;;5.40;99.90;;;;;;4934423;29;20440;-90
2023/05/18 01:00:12;;;;;;;8.80;1.20;;;5.30;99.90;;;;;;4942365;29;20027;-91
2023/05/18 01:02:44;;;;;;;7.93;1.63;;;5.30;99.90;;;;;;4937621;28;20447;-91
2023/05/18 01:05:12;;;;;;;8.55;1.83;;;5.20;99.90;;;;;;4937627;29;20086;-91
2023/05/18 01:07:41;;;;;;;8.05;1.80;;;5.20;99.90;;;;;;4925164;29;20048;-91
2023/05/18 01:10:07;;;;;;;9.15;1.13;;;5.20;99.90;;;;;;4931222;29;20031;-91
2023/05/18 01:12:48;;;;;;;8.68;1.48;;;5.20;99.90;;;;;;4932403;29;20055;-91
2023/05/18 01:15:17;;;;;;;8.35;1.48;;;5.10;99.90;;;;;;4951440;29;20027;-91
2023/05/18 01:17:49;;;;;;;7.97;1.63;;;5.10;99.90;;;;;;4954373;29;20471;-91
2023/05/18 01:20:18;;;;;;;8.55;1.65;;;5.00;99.90;;;;;;4954130;28;20036;-91
2023/05/18 01:23:00;;;;;;;10.23;1.80;;;5.10;99.90;;;;;;4929386;29;20042;-90
2023/05/18 01:25:50;;;;;;;9.98;1.33;;;5.00;99.90;;;;;;4936847;29;20035;-91
2023/05/18 01:28:19;;;;;;;4.82;1.23;;;5.10;99.90;;;;;;4947940;28;20032;-91
2023/05/18 01:30:45;;;;;;;11.27;2.13;;;5.10;99.90;;;;;;4939627;29;20403;-91
2023/05/18 01:33:12;;;;;;;11.82;1.98;;;5.10;99.90;;;;;;4954999;28;20027;-91
2023/05/18 01:35:46;;;;;;;7.97;1.88;;;5.00;99.90;;;;;;4921173;29;20058;-91
2023/05/18 01:38:16;;;;;;;8.15;1.60;;;5.00;99.90;;;;;;4932071;29;20027;-91
2023/05/18 01:41:07;;;;;;;13.13;1.95;;;5.00;99.90;;;;;;4932730;29;20038;-91
2023/05/18 01:43:35;;;;;;;5.93;1.48;;;5.00;99.90;;;;;;4946804;29;20502;-91
2023/05/18 01:46:10;;;;;;;7.32;1.42;;;4.90;99.90;;;;;;4936752;29;20040;-90
2023/05/18 01:48:38;;;;;;;5.60;1.20;;;4.80;99.90;;;;;;4938454;29;20034;-91
2023/05/18 01:51:07;;;;;;;11.80;1.70;;;4.80;99.90;;;;;;4936809;29;20062;-91
2023/05/18 01:53:42;;;;;;;10.23;1.75;;;4.80;99.90;;;;;;4951339;29;20023;-91
2023/05/18 01:56:09;;;;;;;4.75;1.58;;;4.80;99.90;;;;;;4931115;29;20055;-91
2023/05/18 01:58:36;;;;;;;6.85;1.73;;;4.70;99.90;;;;;;4936380;29;20107;-91
2023/05/18 02:01:03;;;;;;;10.13;1.83;;;4.70;99.90;;;;;;4943102;29;20024;-91
2023/05/18 02:03:31;;;;;;;7.43;1.80;;;4.70;99.90;;;;;;4937017;29;20166;-91
2023/05/18 02:05:57;;;;;;;6.35;1.65;;;4.70;99.90;;;;;;4940131;29;20050;-91
2023/05/18 02:08:22;;;;;;;11.75;1.98;;;4.70;99.90;;;;;;4939887;29;20031;-90
2023/05/18 02:10:48;;;;;;;8.82;1.70;;;4.60;99.90;;;;;;4939148;29;20082;-90
2023/05/18 02:13:14;;;;;;;6.05;1.83;;;4.70;99.90;;;;;;4938223;29;20119;-91
2023/05/18 02:15:39;;;;;;;12.35;2.35;;;4.70;99.90;;;;;;4935346;29;20027;-91
2023/05/18 02:18:07;;;;;;;9.13;2.00;;;4.70;99.90;;;;;;4943062;29;20114;-91
2023/05/18 02:20:32;;;;;;;10.98;2.10;;;4.70;99.90;;;;;;4939162;29;20094;-91
2023/05/18 02:22:58;;;;;;;15.10;3.70;;;4.70;99.90;;;;;;4938855;29;20436;-91
2023/05/18 02:25:25;;;;;;;7.15;1.75;;;4.70;99.90;;;;;;4939233;29;20043;-91
2023/05/18 02:27:51;;;;;;;8.20;2.53;;;4.80;99.90;;;;;;4932075;29;20027;-91
2023/05/18 02:30:17;;;;;;;7.68;1.58;;;4.70;99.90;;;;;;4935764;29;20075;-91
2023/05/18 02:32:45;;;;;;;8.30;1.63;;;4.80;99.90;;;;;;4925518;29;20102;-91
2023/05/18 02:35:11;;;;;;;11.40;2.13;;;4.80;99.90;;;;;;4931858;29;20032;-91
2023/05/18 02:37:38;;;;;;;5.32;1.88;;;4.80;99.90;;;;;;4919252;29;20447;-90
2023/05/18 02:40:08;;;;;;;6.25;1.70;;;4.80;99.90;;;;;;4920047;29;20031;-91
2023/05/18 02:42:34;;;;;;;7.53;2.53;;;4.80;99.90;;;;;;4919650;29;20035;-91
2023/05/18 02:44:59;;;;;;;6.75;1.60;;;4.80;99.90;;;;;;4920004;29;20547;-90
2023/05/18 02:47:24;;;;;;;9.30;2.00;;;4.80;99.90;;;;;;4919857;29;20528;-90
2023/05/18 02:49:50;;;;;;;9.70;1.70;;;4.80;99.90;;;;;;4919985;29;20027;-91
2023/05/18 02:52:16;;;;;;;11.27;2.20;;;4.80;99.90;;;;;;4920197;29;20027;-91
2023/05/18 02:54:42;;;;;;;6.95;1.90;;;4.80;99.90;;;;;;4919476;29;20023;-91
2023/05/18 02:57:07;;;;;;;9.82;2.20;;;4.90;99.90;;;;;;4918159;29;20035;-91
2023/05/18 02:59:33;;;;;;;11.68;2.53;;;4.90;99.90;;;;;;4916583;29;20016;-91
2023/05/18 03:01:58;;;;;;;14.10;2.42;;;4.90;99.90;;;;;;4931953;29;20499;-90
2023/05/18 03:04:24;;;;;;;11.25;2.20;;;4.90;99.90;;;;;;4917511;29;20059;-91
2023/05/18 03:06:51;;;;;;;6.93;1.55;;;4.90;99.90;;;;;;4925267;29;20023;-90
2023/05/18 03:09:18;;;;;;;11.32;2.55;;;4.90;99.90;;;;;;4924447;29;20543;-91
2023/05/18 03:11:43;;;;;;;8.52;2.08;;;4.90;99.90;;;;;;4925918;29;20051;-91
2023/05/18 03:14:09;;;;;;;7.55;1.80;;;4.90;99.90;;;;;;4919450;29;20396;-91
2023/05/18 03:16:37;;;;;;;4.72;1.98;;;4.90;99.90;;;;;;4919132;29;20032;-91
2023/05/18 03:19:03;;;;;;;11.80;2.13;;;4.80;99.90;;;;;;4920299;29;20047;-91
2023/05/18 03:21:32;;;;;;;8.32;2.38;;;4.90;99.90;;;;;;4924065;29;20455;-91
2023/05/18 03:24:02;;;;;;;10.93;1.80;;;4.80;99.90;;;;;;4919503;29;20046;-90
2023/05/18 03:26:30;;;;;;;9.25;2.40;;;4.80;99.90;;;;;;4915745;29;20059;-91
2023/05/18 03:28:57;;;;;;;9.25;2.13;;;4.80;99.90;;;;;;4919561;29;20153;-91
2023/05/18 03:31:23;;;;;;;10.98;2.50;;;4.80;99.90;;;;;;4936839;29;20612;-90
2023/05/18 03:33:48;;;;;;;9.02;2.35;;;4.80;99.90;;;;;;4941128;29;20031;-91
2023/05/18 03:36:15;;;;;;;9.02;2.22;;;4.80;99.90;;;;;;4937144;29;20023;-91
2023/05/18 03:38:46;;;;;;;10.30;2.53;;;4.80;99.90;;;;;;4937976;29;20028;-91
2023/05/18 03:41:12;;;;;;;6.18;1.73;;;4.80;99.90;;;;;;4952932;29;20455;-90
2023/05/18 03:43:37;;;;;;;9.65;3.03;;;4.70;99.90;;;;;;4936940;28;20041;-91
2023/05/18 03:46:03;;;;;;;7.63;2.17;;;4.70;99.90;;;;;;4937052;29;20031;-90
2023/05/18 03:48:28;;;;;;;9.63;2.85;;;4.70;99.90;;;;;;4937548;29;20027;-90
2023/05/18 03:50:54;;;;;;;8.00;2.20;;;4.70;99.90;;;;;;4928252;29;20039;-90
2023/05/18 03:53:20;;;;;;;11.55;2.35;;;4.80;99.90;;;;;;4920489;29;20019;-91
2023/05/18 03:55:48;;;;;;;6.82;2.58;;;4.80;99.90;;;;;;4934203;29;20556;-91
2023/05/18 03:58:14;;;;;;;12.25;3.20;;;4.80;99.90;;;;;;4952663;29;20526;-90
2023/05/18 04:00:39;;;;;;;9.15;2.10;;;4.80;99.90;;;;;;4937665;29;20035;-90
2023/05/18 04:03:05;;;;;;;12.27;2.03;;;4.80;99.90;;;;;;4937693;29;20391;-91
2023/05/18 04:05:30;;;;;;;7.57;1.90;;;4.80;99.90;;;;;;4937034;29;20023;-91
2023/05/18 04:07:56;;;;;;;10.70;2.50;;;4.80;99.90;;;;;;4954788;29;20027;-90
2023/05/18 04:10:22;;;;;;;7.82;2.47;;;4.80;99.90;;;;;;4937646;29;20035;-91
2023/05/18 04:12:48;;;;;;;12.15;2.35;;;4.90;99.90;;;;;;4938124;29;20032;-90
2023/05/18 04:15:14;;;;;;;10.80;2.92;;;4.90;99.90;;;;;;4954041;28;20191;-90
2023/05/18 04:17:44;;;;;;;13.48;2.75;;;5.00;99.90;;;;;;4933883;29;20039;-91
2023/05/18 04:20:12;;;;;;;7.85;2.22;;;5.00;99.90;;;;;;4937283;29;20114;-90
2023/05/18 04:22:42;;;;;;;12.45;2.33;;;5.10;99.90;;;;;;4937429;29;20047;-90
2023/05/18 04:25:10;;;;;;;6.75;2.53;;;5.10;99.90;;;;;;4936237;29;20506;-90
2023/05/18 04:27:37;;;;;;;11.60;2.58;;;5.20;99.90;;;;;;4936950;29;20035;-91
2023/05/18 04:30:02;;;;;;;11.88;3.20;;;5.20;99.90;;;;;;4936979;29;20043;-90
2023/05/18 04:32:29;;;;;;;10.68;2.90;;;5.20;99.90;;;;;;4944747;29;20042;-90
2023/05/18 04:34:57;;;;;;;15.23;3.03;;;5.30;99.90;;;;;;4936520;29;20031;-90
2023/05/18 04:37:23;;;;;;;8.40;2.60;;;5.30;99.90;;;;;;4925052;29;20581;-90
2023/05/18 04:39:49;;;;;;;16.35;3.50;;;5.40;99.90;;;;;;4922928;29;20028;-91
2023/05/18 04:42:17;;;;;;;8.23;2.55;;;5.50;99.90;;;;;;4932149;29;20090;-90
2023/05/18 04:44:43;;;;;;;9.25;2.40;;;5.50;99.90;;;;;;4944200;29;20027;-91
2023/05/18 04:47:08;;;;;;;12.85;2.58;;;5.50;99.90;;;;;;4937771;29;20134;-91
2023/05/18 04:49:34;;;;;;;9.77;2.38;;;5.60;99.90;;;;;;4932291;29;20019;-91
2023/05/18 04:51:59;;;;;;;9.02;2.78;;;5.70;99.90;;;;;;4935037;29;20033;-90
2023/05/18 04:54:29;;;;;;;9.75;3.38;;;5.80;99.90;;;;;;4922926;29;20289;-91
2023/05/18 04:56:55;;;;;;;8.57;2.53;;;5.80;99.90;;;;;;4940859;28;20034;-91
2023/05/18 04:59:25;;;;;;;15.02;2.55;;;5.90;99.90;;;;;;4936017;29;20031;-91
2023/05/18 05:01:54;;;;;;;11.63;2.88;;;6.00;99.90;;;;;;4940613;29;20035;-91
2023/05/18 05:04:22;;;;;;;11.65;2.65;;;6.00;99.90;;;;;;4940409;29;20046;-91
2023/05/18 05:06:48;;;;;;;7.32;3.22;;;6.10;99.90;;;;;;4945172;29;20042;-90
2023/05/18 05:09:13;;;;;;;8.68;2.78;;;6.20;99.90;;;;;;4937404;29;20132;-91
2023/05/18 05:11:40;;;;;;;12.68;2.47;;;6.20;99.90;;;;;;4930687;28;20035;-90
2023/05/18 05:14:06;;;;;;;8.02;2.47;;;6.30;99.90;;;;;;4933224;28;20035;-89
2023/05/18 05:16:32;;;;;;;9.52;2.72;;;6.40;99.90;;;;;;4939845;29;20047;-89
2023/05/18 05:18:57;;;;;;;5.25;1.95;;;6.60;99.90;;;;;;4935816;28;20075;-89
2023/05/18 05:21:23;;;;;;;7.80;2.55;;;6.80;99.90;;;;;;4935458;29;20868;-89
2023/05/18 05:23:49;;;;;;;7.15;1.90;;;6.90;99.90;;;;;;4956498;28;20031;-89
2023/05/18 05:26:15;;;;;;;6.40;2.30;;;7.10;99.90;;;;;;4953015;29;20039;-90
2023/05/18 05:28:40;;;;;;;12.68;2.00;;;7.20;99.90;;;;;;4953903;29;20483;-89
2023/05/18 05:31:06;;;;;;;9.88;2.67;;;7.30;99.90;;;;;;4934932;29;20047;-89
2023/05/18 05:33:32;;;;;;;8.93;2.17;;;7.40;99.90;;;;;;4936499;29;20074;-88
2023/05/18 05:35:57;;;;;;;9.18;2.63;;;7.40;99.90;;;;;;4955221;28;20078;-90
2023/05/18 05:38:23;;;;;;;7.78;2.35;;;7.50;99.90;;;;;;4935884;29;20651;-90
2023/05/18 05:40:48;;;;;;;8.43;1.85;;;7.60;99.90;;;;;;4940461;29;20023;-90
2023/05/18 05:43:14;;;;;;;7.47;2.17;;;7.60;99.90;;;;;;4939335;29;20049;-89
2023/05/18 05:45:41;;;;;;;11.23;2.63;;;7.60;99.90;;;;;;4940491;29;20035;-89
2023/05/18 05:48:07;;;;;;;12.52;3.13;;;7.70;99.90;;;;;;4940313;29;20028;-89
2023/05/18 05:50:32;;;;;;;10.43;1.90;;;7.80;99.90;;;;;;4939857;29;20542;-90
2023/05/18 05:52:58;;;;;;;9.00;1.48;;;7.90;99.90;;;;;;4940423;29;20070;-89
2023/05/18 05:55:24;;;;;;;6.53;1.58;;;8.00;99.90;;;;;;4940074;29;20062;-89
2023/05/18 05:57:49;;;;;;;9.27;2.13;;;8.20;99.90;;;;;;4938722;29;20079;-90
2023/05/18 06:00:16;;;;;;;7.93;1.98;;;8.20;99.90;;;;;;4929330;29;20055;-89
2023/05/18 06:02:41;;;;;;;17.77;2.38;;;8.40;99.90;;;;;;4939604;29;20475;-90
2023/05/18 06:05:07;;;;;;;5.80;1.88;;;8.50;99.90;;;;;;4932508;29;20042;-91
2023/05/18 06:07:34;;;;;;;11.18;2.28;;;8.60;99.90;;;;;;4927480;29;20027;-91
2023/05/18 06:10:00;;;;;;;5.05;1.42;;;8.60;99.90;;;;;;4937545;29;20759;-90
2023/05/18 06:12:25;;;;;;;8.25;1.58;;;8.70;99.90;;;;;;4939725;29;20127;-90
2023/05/18 06:14:56;;;;;;;9.73;1.52;;;8.80;99.90;;;;;;4938525;29;20112;-90
2023/05/18 06:17:24;;;;;;;8.20;1.63;;;8.90;99.90;;;;;;4936616;29;20067;-90
2023/05/18 06:19:50;;;;;;;11.88;1.65;;;8.90;99.90;;;;;;4941704;29;20065;-90
2023/05/18 06:22:16;;;;;;;12.25;2.08;;;9.00;99.90;;;;;;4940271;29;20034;-89
2023/05/18 06:24:41;;;;;;;6.97;1.70;;;9.20;99.90;;;;;;4942806;29;20054;-91
2023/05/18 06:27:07;;;;;;;9.77;2.13;;;9.30;99.90;;;;;;4939043;29;20031;-90
2023/05/18 06:29:33;;;;;;;5.90;1.08;;;9.40;99.90;;;;;;4939208;29;20440;-90
2023/05/18 06:31:58;;;;;;;7.88;1.73;;;9.50;99.90;;;;;;4939323;29;20057;-90
2023/05/18 06:34:24;;;;;;;9.90;1.58;;;9.60;99.90;;;;;;4938595;29;20558;-90
2023/05/18 06:36:49;;;;;;;8.35;2.10;;;9.60;99.90;;;;;;4932636;29;20066;-90
2023/05/18 06:39:15;;;;;;;9.57;1.60;;;9.70;99.90;;;;;;4926009;29;20023;-90
2023/05/18 06:41:40;;;;;;;17.13;2.30;;;9.80;99.90;;;;;;4934431;29;20106;-89
2023/05/18 06:44:06;;;;;;;8.55;2.20;;;10.00;99.90;;;;;;4939834;29;20386;-91
2023/05/18 06:46:31;;;;;;;12.50;1.65;;;10.10;99.90;;;;;;4940357;29;20034;-90
2023/05/18 06:48:57;;;;;;;10.73;1.50;;;10.10;99.90;;;;;;4939691;29;20483;-91
2023/05/18 06:51:26;;;;;;;8.63;1.52;;;10.10;99.90;;;;;;4938965;29;20031;-90
2023/05/18 06:53:52;;;;;;;10.10;2.67;;;10.20;99.90;;;;;;4939360;29;20059;-91
2023/05/18 06:56:18;;;;;;;9.65;2.00;;;10.10;99.90;;;;;;4939826;29;20058;-90
2023/05/18 06:58:44;;;;;;;9.93;1.60;;;10.10;99.90;;;;;;4939143;29;20027;-91
2023/05/18 07:01:11;;;;;;;8.85;1.30;;;10.10;99.90;;;;;;4935801;29;20034;-90
2023/05/18 07:03:36;;;;;;;7.40;1.45;;;10.20;99.90;;;;;;4938055;29;20138;-90
2023/05/18 07:06:03;;;;;;;11.10;2.03;;;10.30;99.90;;;;;;4939484;29;20114;-91
2023/05/18 07:08:29;;;;;;;21.60;2.72;;;10.40;99.90;;;;;;4923990;29;20428;-91
2023/05/18 07:10:56;;;;;;;34.50;4.75;;;10.50;99.90;;;;;;4920126;29;20031;-91
2023/05/18 07:13:23;;;;;;;13.10;1.98;;;10.50;99.90;;;;;;4931583;29;20035;-91
2023/05/18 07:15:48;;;;;;;13.10;3.17;;;10.60;99.90;;;;;;4938771;29;20073;-90
2023/05/18 07:18:14;;;;;;;24.70;2.63;;;10.70;99.90;;;;;;4934804;28;20432;-91
2023/05/18 07:20:39;;;;;;;23.70;2.83;;;10.70;99.90;;;;;;4937299;29;20023;-91
2023/05/18 07:23:05;;;;;;;11.15;2.13;;;10.80;99.90;;;;;;4934513;29;20381;-89
2023/05/18 07:25:31;;;;;;;8.73;2.03;;;10.70;99.90;;;;;;4921691;28;20062;-89
2023/05/18 07:27:56;;;;;;;10.80;2.13;;;10.60;99.90;;;;;;4935340;29;20237;-88
2023/05/18 07:30:22;;;;;;;10.88;2.13;;;10.50;99.90;;;;;;4942488;28;20051;-89
2023/05/18 07:32:48;;;;;;;6.97;1.40;;;10.60;99.90;;;;;;4920749;29;20122;-88
2023/05/18 07:35:15;;;;;;;9.95;2.03;;;10.70;99.90;;;;;;4922029;29;20027;-87
2023/05/18 07:37:41;;;;;;;8.57;1.70;;;10.70;99.90;;;;;;4935525;29;20019;-88
2023/05/18 07:40:09;;;;;;;13.70;2.35;;;10.70;99.90;;;;;;4939987;29;20034;-88
2023/05/18 07:42:34;;;;;;;13.48;1.70;;;10.70;99.90;;;;;;4941181;29;20031;-90
2023/05/18 07:45:00;;;;;;;11.98;2.15;;;10.70;99.90;;;;;;4941348;29;20054;-90
2023/05/18 07:47:26;;;;;;;6.43;1.98;;;10.70;99.90;;;;;;4941339;29;20031;-91
2023/05/18 07:49:51;;;;;;;10.18;2.03;;;10.70;99.90;;;;;;4940972;29;20027;-92
2023/05/18 07:52:17;;;;;;;13.45;2.15;;;10.80;99.90;;;;;;4941512;29;20129;-91
2023/05/18 07:54:43;;;;;;;5.50;1.45;;;10.80;99.90;;;;;;4940071;29;20064;-91
2023/05/18 07:57:08;;;;;;;13.65;2.28;;;10.90;99.90;;;;;;4940116;29;20110;-90
2023/05/18 07:59:34;;;;;;;10.20;2.30;;;10.90;99.90;;;;;;4940907;29;20503;-90
2023/05/18 08:02:00;;;;;;;13.73;1.98;;;11.10;99.90;;;;;;4935349;29;20392;-91
2023/05/18 08:04:26;;;;;;;8.18;1.48;;;11.20;99.90;;;;;;4938813;29;20517;-90
2023/05/18 08:06:53;;;;;;;8.77;1.67;;;11.30;99.90;;;;;;4938724;29;20074;-91
2023/05/18 08:09:21;;;;;;;7.60;1.67;;;11.40;99.90;;;;;;4952444;29;20118;-90
2023/05/18 08:11:46;;;;;;;12.63;2.53;;;11.40;99.90;;;;;;4949588;29;20043;-91
2023/05/18 08:14:12;;;;;;;11.50;1.45;;;11.50;99.90;;;;;;4938286;29;20038;-90
2023/05/18 08:16:38;;;;;;;8.40;1.85;;;11.60;99.90;;;;;;4937916;29;20043;-91
2023/05/18 08:19:03;;;;;;;9.10;2.08;;;11.70;99.90;;;;;;4937767;29;20543;-91
2023/05/18 08:21:29;;;;;;;12.25;2.00;;;11.90;99.90;;;;;;4937356;29;20035;-90
2023/05/18 08:23:55;;;;;;;6.18;1.58;;;12.10;99.90;;;;;;4937357;29;20391;-90
2023/05/18 08:26:21;;;;;;;7.88;1.50;;;12.10;99.90;;;;;;4937590;29;20073;-89
2023/05/18 08:28:47;;;;;;;9.70;1.55;;;12.20;99.90;;;;;;4937789;29;20031;-90
2023/05/18 08:31:13;;;;;;;8.07;1.90;;;12.30;99.90;;;;;;4939137;28;20055;-90
2023/05/18 08:33:39;;;;;;;7.68;1.35;;;12.30;99.90;;;;;;4941071;29;20086;-90
2023/05/18 08:36:05;;;;;;;8.93;1.40;;;12.30;99.80;;;;;;4941778;29;20558;-89
2023/05/18 08:38:31;;;;;;;11.13;1.73;;;12.40;99.80;;;;;;4941699;29;20078;-90
2023/05/18 08:41:22;;;;;;;10.88;1.25;;;12.50;99.10;;;;;;4941317;29;20027;-90
2023/05/18 08:43:58;;;;;;;9.00;1.05;;;12.60;99.20;;;;;;4941736;29;20027;-90
2023/05/18 08:46:49;;;;;;;5.68;0.90;;;12.90;99.10;;;;;;4941136;29;20028;-91
2023/05/18 08:49:17;;;;;;;9.35;1.67;;;13.10;98.00;;;;;;4941979;28;20073;-91
2023/05/18 08:51:46;;;;;;;11.50;2.20;;;13.00;97.00;;;;;;4960319;28;20097;-90
2023/05/18 08:54:18;;;;;;;14.25;1.80;;;13.00;96.60;;;;;;4941548;29;20030;-91
2023/05/18 08:56:45;;;;;;;8.20;2.00;;;13.20;97.10;;;;;;4941405;29;20027;-90
2023/05/18 08:59:13;;;;;;;14.25;1.65;;;13.40;96.60;;;;;;4941640;29;20124;-90
2023/05/18 09:01:39;;;;;;;7.88;1.00;;;13.50;95.00;;;;;;4937375;29;20480;-91
2023/05/18 09:04:05;;;;;;;10.23;1.42;;;13.60;95.20;;;;;;4940316;29;20027;-91
2023/05/18 09:06:33;;;;;;;7.05;1.42;;;13.50;93.80;;;;;;4941690;29;20028;-90
2023/05/18 09:09:03;;;;;;;9.88;1.23;;;13.30;93.60;;;;;;4949510;28;20046;-91
2023/05/18 09:11:31;;;;;;;8.23;1.00;;;13.30;93.40;;;;;;4948813;29;20039;-90
2023/05/18 09:13:57;;;;;;;5.57;1.00;;;13.20;93.30;;;;;;4941775;29;20023;-90
2023/05/18 09:16:23;;;;;;;5.53;0.95;;;13.20;92.70;;;;;;4944050;29;20042;-90
2023/05/18 09:18:49;;;;;;;10.95;1.33;;;13.10;92.40;;;;;;4936348;28;20055;-90
2023/05/18 09:21:14;;;;;;;8.65;1.23;;;12.90;92.20;;;;;;4942653;29;20034;-90
2023/05/18 09:23:41;;;;;;;8.38;1.10;;;12.90;92.80;;;;;;4942175;29;20031;-90
2023/05/18 09:26:08;;;;;;;6.53;1.00;;;13.00;92.90;;;;;;4939640;29;20031;-90
2023/05/18 09:28:36;;;;;;;8.27;1.15;;;13.10;92.60;;;;;;4942056;29;20043;-90
2023/05/18 09:31:03;;;;;;;8.63;1.52;;;13.20;90.70;;;;;;4946216;29;20051;-89
2023/05/18 09:33:35;;;;;;;12.15;1.98;;;13.30;90.80;;;;;;4944895;29;20023;-91
2023/05/18 09:36:07;;;;;;;10.45;1.40;;;13.20;91.00;;;;;;4945533;29;20035;-91
2023/05/18 09:38:42;;;;;;;10.90;1.03;;;13.30;91.80;;;;;;4943461;29;20538;-89
2023/05/18 09:41:15;;;;;;;6.05;1.10;;;13.40;92.00;;;;;;4944292;29;20031;-90
2023/05/18 09:43:42;;;;;;;;;;;13.40;90.80;;;;;;4940796;29;20379;-90
2023/05/18 09:46:09;;;;;;;8.15;1.00;;;13.30;90.80;;;;;;4927365;29;20314;-90
2023/05/18 09:48:36;;;;;;;11.30;1.55;;;13.40;91.20;;;;;;4931776;29;20050;-90
2023/05/18 09:51:05;;;;;;;11.35;1.40;;;13.60;91.20;;;;;;4926358;29;20043;-90
2023/05/18 09:53:33;;;;;;;7.47;1.40;;;13.70;91.10;;;;;;4925138;29;20424;-90
2023/05/18 09:56:04;;;;;;;8.23;1.08;;;13.80;91.20;;;;;;4927297;29;20102;-91
2023/05/18 09:58:33;;;;;;;6.88;1.27;;;13.90;91.60;;;;;;4945190;29;20103;-91
2023/05/18 10:01:01;;;;;;;9.18;1.45;;;14.10;90.50;;;;;;4945072;29;20103;-91
2023/05/18 10:03:32;;;;;;;4.93;0.90;;;14.00;88.60;;;;;;4945065;29;20038;-91
2023/05/18 10:06:06;;;;;;;7.70;1.17;;;14.00;88.70;;;;;;4945466;29;20491;-91
2023/05/18 10:08:32;;;;;;;8.25;1.30;;;14.10;89.20;;;;;;4944459;29;20031;-90
2023/05/18 10:10:58;;;;;;;6.68;1.20;;;14.20;87.80;;;;;;4944198;29;20043;-90
2023/05/18 10:13:26;;;;;;;10.52;1.23;;;14.30;88.60;;;;;;4944299;29;20034;-90
2023/05/18 10:15:55;;;;;;;4.93;1.00;;;14.40;88.00;;;;;;4943727;29;20027;-90
2023/05/18 10:18:22;;;;;;;5.53;1.00;;;14.30;84.70;;;;;;4944608;29;20555;-90
2023/05/18 10:20:50;;;;;;;8.18;1.20;;;14.10;85.20;;;;;;4944129;29;20090;-90
2023/05/18 10:23:21;;;;;;;8.02;1.65;;;14.10;84.10;;;;;;4943287;29;20129;-91
2023/05/18 10:25:48;;;;;;;9.90;1.52;;;13.90;84.50;;;;;;4941319;29;20055;-89
2023/05/18 10:28:24;;;;;;;11.85;1.65;;;14.00;85.90;;;;;;4938440;29;20027;-91
2023/05/18 10:30:52;;;;;;;7.05;1.45;;;14.20;87.00;;;;;;4930080;29;20055;-90
2023/05/18 10:33:20;;;;;;;6.78;1.30;;;14.40;86.90;;;;;;4942157;29;20081;-90
2023/05/18 10:35:48;;;;;;;5.47;0.98;;;14.50;84.40;;;;;;4943137;29;20090;-90
2023/05/18 10:38:18;;;;;;;7.15;1.20;;;14.30;84.10;;;;;;4942762;29;20114;-90
2023/05/18 10:40:46;;;;;;;8.05;1.20;;;14.10;84.20;;;;;;4942728;29;20027;-90
2023/05/18 10:43:12;;;;;;;6.63;1.23;;;14.20;85.20;;;;;;4942291;29;20360;-90
2023/05/18 10:45:39;;;;;;;4.80;0.82;;;14.20;84.90;;;;;;4942294;29;20034;-91
2023/05/18 10:48:09;;;;;;;6.50;0.93;;;14.20;83.70;;;;;;4942272;29;20031;-90
2023/05/18 10:50:38;;;;;;;13.52;2.08;;;14.10;84.70;;;;;;4942028;29;20122;-90
2023/05/18 10:53:05;;;;;;;11.40;1.48;;;14.00;83.70;;;;;;4942303;28;20059;-90
2023/05/18 10:55:31;;;;;;;8.48;1.23;;;13.80;84.00;;;;;;4942263;29;20102;-91
2023/05/18 10:58:02;;;;;;;5.68;1.23;;;13.70;85.30;;;;;;4941535;29;20051;-90
2023/05/18 11:00:30;;;;;;;8.30;1.50;;;13.80;84.80;;;;;;4941971;29;20126;-90
2023/05/18 11:02:56;;;;;;;8.10;1.88;;;13.80;85.00;;;;;;4941786;29;20026;-90
2023/05/18 11:05:25;;;;;;;6.88;1.10;;;13.90;85.20;;;;;;4941356;29;20035;-91
2023/05/18 11:08:00;;;;;;;10.35;1.55;;;14.00;85.20;;;;;;4941696;29;20113;-91
2023/05/18 11:10:33;;;;;;;8.35;1.13;;;14.10;84.90;;;;;;4941755;29;20031;-90
2023/05/18 11:13:00;;;;;;;10.02;1.45;;;14.20;83.80;;;;;;4940477;29;20118;-90
2023/05/18 11:16:00;;;;;;;5.78;1.23;;;14.10;83.60;;;;;;4943222;29;20122;-90
2023/05/18 11:18:44;;;;;;;8.45;1.27;;;14.10;84.00;;;;;;4941196;29;20031;-90
2023/05/18 11:21:23;;;;;;;8.77;1.77;;;14.10;84.40;;;;;;4940952;29;20027;-90
2023/05/18 11:24:43;;;;;;;11.82;1.05;;;14.30;85.00;;;;;;4941257;29;20027;-91
2023/05/18 11:27:15;;;;;;;8.43;1.52;;;14.50;85.00;;;;;;4874549;29;20136;-90
2023/05/18 11:29:43;;;;;;;8.52;1.20;;;14.50;81.80;;;;;;4943186;29;20509;-90
2023/05/18 11:32:31;;;;;;;7.85;0.85;;;14.40;81.90;;;;;;4956418;29;20042;-90
2023/05/18 11:34:58;;;;;;;4.90;0.98;;;14.40;81.80;;;;;;4956828;29;20472;-90
2023/05/18 11:37:43;;;;;;;10.95;1.25;;;14.30;82.30;;;;;;4957147;29;20099;-91
2023/05/18 11:40:32;;;;;;;9.13;1.30;;;14.30;81.20;;;;;;4956916;29;20027;-91
2023/05/18 11:42:58;;;;;;;7.43;0.98;;;14.20;81.90;;;;;;4940894;29;20035;-90
2023/05/18 11:45:24;;;;;;;6.55;0.90;;;14.20;81.60;;;;;;4940365;29;20048;-90
2023/05/18 11:48:00;;;;;;;12.38;2.97;;;14.30;82.40;;;;;;4937938;29;20020;-90
2023/05/18 11:50:28;;;;;;;8.27;1.67;;;14.30;81.30;;;;;;4936114;29;20031;-91
2023/05/18 11:52:58;;;;;;;7.68;1.05;;;14.30;81.10;;;;;;4920230;29;20036;-91
2023/05/18 11:55:37;;;;;;;5.95;1.15;;;14.40;81.20;;;;;;4936202;29;20023;-91
2023/05/18 11:58:02;;;;;;;5.65;1.15;;;14.40;80.30;;;;;;4940525;29;20019;-92
2023/05/18 12:00:29;;;;;;;11.02;1.20;;;14.40;79.40;;;;;;4940576;29;20027;-91
2023/05/18 12:02:55;;;;;;;7.97;1.10;;;14.50;80.80;;;;;;4940839;29;20058;-91
2023/05/18 12:05:22;;;;;;;4.32;1.00;;;14.70;81.60;;;;;;4939706;29;20020;-90
2023/05/18 12:07:51;;;;;;;6.78;1.38;;;14.90;81.60;;;;;;4940664;29;20054;-90
2023/05/18 12:10:19;;;;;;;6.53;1.55;;;15.10;80.80;;;;;;4940207;29;20479;-90
2023/05/18 12:12:50;;;;;;;7.85;1.50;;;15.20;80.40;;;;;;4939943;29;20039;-91
2023/05/18 12:15:19;;;;;;;7.78;1.00;;;15.30;79.40;;;;;;4940418;29;20019;-91
2023/05/18 12:17:50;;;;;;;7.43;1.10;;;15.20;78.80;;;;;;4955246;29;20035;-91
2023/05/18 12:20:17;;;;;;;7.38;1.10;;;15.40;79.30;;;;;;4940533;29;20031;-92
2023/05/18 12:22:51;;;;;;;7.28;1.20;;;15.50;78.60;;;;;;4940833;29;20024;-89
2023/05/18 12:25:22;;;;;;;8.75;1.77;;;15.60;77.30;;;;;;4938161;28;20502;-90
2023/05/18 12:27:48;;;;;;;5.60;1.05;;;15.60;77.40;;;;;;4936843;29;20498;-90
2023/05/18 12:30:23;;;;;;;5.35;1.10;;;15.60;78.60;;;;;;4941850;29;20081;-90
2023/05/18 12:32:56;;;;;;;3.92;1.10;;;15.70;76.20;;;;;;4941890;29;20130;-90
2023/05/18 12:35:26;;;;;;;7.03;1.05;;;15.70;75.70;;;;;;4941380;29;20550;-90
2023/05/18 12:37:56;;;;;;;7.82;1.08;;;15.70;75.20;;;;;;4941818;29;20032;-91
2023/05/18 12:40:22;;;;;;;6.93;1.10;;;15.70;73.80;;;;;;4941790;29;20031;-90
2023/05/18 12:42:59;;;;;;;8.95;1.00;;;15.70;74.10;;;;;;4941478;29;20364;-90
2023/05/18 12:45:27;;;;;;;6.53;1.35;;;15.80;74.80;;;;;;4941914;29;20608;-90
2023/05/18 12:47:53;;;;;;;5.68;1.10;;;16.00;76.40;;;;;;4942512;29;20091;-90
2023/05/18 12:50:27;;;;;;;6.35;1.40;;;16.30;74.60;;;;;;4940664;29;20027;-91
2023/05/18 12:52:54;;;;;;;6.63;1.15;;;16.30;75.10;;;;;;4937751;28;20395;-90
2023/05/18 12:55:20;;;;;;;7.80;1.65;;;16.30;73.30;;;;;;4923504;29;20031;-90